Time;durP1;ratioP1;P1;durP2;ratioP2;P2;SDS_P1;SDS_P2;PMS_P1;PMS_P2;Temp;Humidity;BMP_temperature;BMP_pressure;BME280_temperature;BME280_humidity;BME280_pressure;Samples;Min_cycle;Max_cycle;Signal;HPM_P1;HPM_P2
2021/01/03 00:00:57;;;;;;;;;;;;;;;8.73;67.10;100412.91;5028619;28;20371;-42
2021/01/03 00:03:23;;;;;;;;;;;;;;;8.76;67.43;100404.41;5028115;28;19936;-41
2021/01/03 00:05:48;;;;;;;;;;;;;;;8.73;66.37;100407.56;5026729;28;19929;-41
2021/01/03 00:08:13;;;;;;;;;;;;;;;8.65;67.98;100400.72;5026768;28;19921;-41
2021/01/03 00:10:38;;;;;;;;;;;;;;;8.61;68.67;100409.44;5026087;28;20008;-42
2021/01/03 00:13:04;;;;;;;;;;;;;;;8.58;69.37;100402.69;5031060;28;20011;-41
2021/01/03 00:15:29;;;;;;;;;;;;;;;8.52;69.55;100391.09;5031073;28;19974;-41
2021/01/03 00:17:54;;;;;;;;;;;;;;;8.58;70.29;100392.00;5032214;28;20387;-39
2021/01/03 00:20:22;;;;;;;;;;;;;;;8.47;69.50;100390.16;5034981;28;19924;-41
2021/01/03 00:22:48;;;;;;;;;;;;;;;8.52;69.82;100396.44;5034388;28;19960;-42
2021/01/03 00:25:14;;;;;;;;;;;;;;;8.55;69.76;100403.16;5034115;28;19917;-40
2021/01/03 00:27:39;;;;;;;;;;;;;;;8.47;69.49;100408.88;5034578;28;19928;-42
2021/01/03 00:30:06;;;;;;;;;;;;;;;8.46;69.11;100407.25;5029061;28;19999;-41
2021/01/03 00:32:31;;;;;;;;;;;;;;;8.47;69.26;100406.22;5034548;28;20467;-41
2021/01/03 00:34:56;;;;;;;;;;;;;;;8.57;68.20;100403.72;5034532;28;20079;-42
2021/01/03 00:37:22;;;;;;;;;;;;;;;8.54;68.90;100409.56;5034519;28;19921;-41
2021/01/03 00:39:48;;;;;;;;;;;;;;;8.35;68.71;100413.38;5033919;28;19921;-44
2021/01/03 00:42:14;;;;;;;;;;;;;;;8.39;68.57;100425.22;5034789;28;19913;-41
2021/01/03 00:44:39;;;;;;;;;;;;;;;8.04;68.78;100429.47;5033481;28;19925;-40
2021/01/03 00:47:04;;;;;;;;;;;;;;;8.05;69.18;100412.41;5034539;28;19913;-41
2021/01/03 00:49:29;;;;;;;;;;;;;;;8.10;68.87;100404.53;5034240;28;19925;-40
2021/01/03 00:51:55;;;;;;;;;;;;;;;8.00;69.93;100403.47;5033548;28;20026;-47
2021/01/03 00:54:20;;;;;;;;;;;;;;;8.02;70.06;100401.38;5032119;28;19964;-44
2021/01/03 00:56:45;;;;;;;;;;;;;;;8.07;70.10;100398.84;5032933;28;19956;-47
2021/01/03 00:59:11;;;;;;;;;;;;;;;8.13;69.89;100390.72;5034033;28;19917;-41
2021/01/03 01:01:36;;;;;;;;;;;;;;;7.98;70.23;100394.88;5033341;28;19921;-41
2021/01/03 01:04:01;;;;;;;;;;;;;;;7.66;69.09;100397.81;5033609;28;20485;-42
2021/01/03 01:06:26;;;;;;;;;;;;;;;7.93;69.59;100392.91;5033927;28;20024;-41
2021/01/03 01:08:52;;;;;;;;;;;;;;;8.09;68.63;100399.41;5033540;28;19939;-42
2021/01/03 01:11:18;;;;;;;;;;;;;;;8.01;68.16;100399.75;5033783;28;20371;-44
2021/01/03 01:13:43;;;;;;;;;;;;;;;7.94;69.00;100397.19;5033579;28;19921;-42
2021/01/03 01:16:09;;;;;;;;;;;;;;;7.90;69.81;100406.69;5033527;28;20286;-41
2021/01/03 01:18:34;;;;;;;;;;;;;;;7.57;70.63;100413.34;5033527;28;19920;-43
2021/01/03 01:20:59;;;;;;;;;;;;;;;7.50;70.58;100415.28;5032979;28;20011;-43
2021/01/03 01:23:25;;;;;;;;;;;;;;;7.71;69.72;100408.63;5033851;28;20004;-42
2021/01/03 01:25:50;;;;;;;;;;;;;;;7.74;69.20;100418.84;5033689;28;19967;-40
2021/01/03 01:28:15;;;;;;;;;;;;;;;7.66;68.97;100422.69;5034167;28;19917;-42
2021/01/03 01:30:41;;;;;;;;;;;;;;;7.61;68.16;100424.38;5032581;28;19917;-40
2021/01/03 01:33:06;;;;;;;;;;;;;;;7.48;69.42;100434.19;5032970;28;19925;-40
2021/01/03 01:35:32;;;;;;;;;;;;;;;7.53;69.10;100429.00;5033410;28;19921;-42
2021/01/03 01:37:58;;;;;;;;;;;;;;;7.71;68.17;100425.47;5033409;28;19925;-41
2021/01/03 01:40:27;;;;;;;;;;;;;;;7.67;68.44;100418.16;5033460;28;19936;-41
2021/01/03 01:42:53;;;;;;;;;;;;;;;7.62;68.21;100413.47;5033471;28;19920;-41
2021/01/03 01:45:19;;;;;;;;;;;;;;;7.53;68.05;100418.31;5033383;28;19917;-41
2021/01/03 01:47:46;;;;;;;;;;;;;;;7.40;69.43;100437.19;5033354;28;19913;-41
2021/01/03 01:50:18;;;;;;;;;;;;;;;7.33;70.10;100439.13;5032930;28;19980;-42
2021/01/03 01:52:46;;;;;;;;;;;;;;;7.38;70.44;100437.41;5027946;28;20013;-42
2021/01/03 01:55:16;;;;;;;;;;;;;;;7.42;70.39;100453.78;5026944;28;19917;-40
2021/01/03 01:58:00;;;;;;;;;;;;;;;7.55;70.40;100456.25;5032159;28;19913;-40
2021/01/03 02:00:28;;;;;;;;;;;;;;;7.49;70.56;100462.50;5028347;28;19921;-40
2021/01/03 02:03:00;;;;;;;;;;;;;;;7.51;71.16;100479.09;5032321;28;19927;-42
2021/01/03 02:05:45;;;;;;;;;;;;;;;7.34;71.48;100475.41;5033121;28;19929;-44
2021/01/03 02:08:32;;;;;;;;;;;;;;;7.51;71.06;100484.44;5025401;28;19913;-47
2021/01/03 02:10:58;;;;;;;;;;;;;;;7.65;70.83;100487.75;5032777;28;19958;-44
2021/01/03 02:13:23;;;;;;;;;;;;;;;7.71;71.09;100499.38;5032823;28;19917;-41
2021/01/03 02:15:49;;;;;;;;;;;;;;;7.76;71.20;100502.97;5032453;28;19947;-45
2021/01/03 02:18:15;;;;;;;;;;;;;;;7.79;70.81;100514.28;5032042;28;19921;-43
2021/01/03 02:20:40;;;;;;;;;;;;;;;7.61;71.08;100531.09;5018446;28;20390;-44
2021/01/03 02:23:07;;;;;;;;;;;;;;;7.60;70.88;100524.16;5016732;28;19944;-43
2021/01/03 02:25:33;;;;;;;;;;;;;;;7.60;71.36;100532.16;5014463;28;19921;-43
2021/01/03 02:28:10;;;;;;;;;;;;;;;7.55;72.08;100533.63;5015602;28;19914;-43
2021/01/03 02:30:36;;;;;;;;;;;;;;;7.70;72.05;100543.13;5014538;28;19922;-41
2021/01/03 02:33:04;;;;;;;;;;;;;;;7.67;71.66;100555.06;5015259;28;20035;-44
2021/01/03 02:35:30;;;;;;;;;;;;;;;7.50;71.63;100565.53;5019460;28;19921;-41
2021/01/03 02:37:57;;;;;;;;;;;;;;;7.53;71.23;100558.94;5031423;28;19917;-46
2021/01/03 02:40:24;;;;;;;;;;;;;;;7.64;71.09;100563.50;5032655;28;20291;-42
2021/01/03 02:42:49;;;;;;;;;;;;;;;7.70;70.22;100559.13;5027927;28;19921;-41
2021/01/03 02:45:18;;;;;;;;;;;;;;;7.61;70.19;100550.63;5032524;28;19913;-43
2021/01/03 02:47:43;;;;;;;;;;;;;;;7.51;70.16;100556.47;5032641;28;19921;-40
2021/01/03 02:50:11;;;;;;;;;;;;;;;7.48;70.77;100545.44;5064464;28;20454;-43
2021/01/03 02:52:38;;;;;;;;;;;;;;;7.60;69.58;100548.19;5031862;28;19921;-42
2021/01/03 02:55:05;;;;;;;;;;;;;;;7.71;69.90;100539.41;5032080;28;20375;-47
2021/01/03 02:57:30;;;;;;;;;;;;;;;7.80;70.12;100543.41;5038901;28;19921;-43
2021/01/03 02:59:56;;;;;;;;;;;;;;;7.73;70.25;100537.31;5032057;28;20299;-41
2021/01/03 03:02:21;;;;;;;;;;;;;;;7.63;69.82;100537.88;5031909;28;20023;-41
2021/01/03 03:04:46;;;;;;;;;;;;;;;7.78;69.64;100533.97;5031575;28;20282;-43
2021/01/03 03:07:12;;;;;;;;;;;;;;;7.69;69.58;100528.94;5031791;28;20426;-42
2021/01/03 03:09:37;;;;;;;;;;;;;;;7.79;68.60;100525.75;5031773;28;19927;-44
2021/01/03 03:12:02;;;;;;;;;;;;;;;7.75;68.40;100525.41;5030513;28;19964;-48
2021/01/03 03:14:28;;;;;;;;;;;;;;;7.84;67.53;100522.41;5028203;28;20292;-44
2021/01/03 03:16:57;;;;;;;;;;;;;;;7.82;67.64;100524.47;5018953;28;20387;-42
2021/01/03 03:19:22;;;;;;;;;;;;;;;7.74;68.88;100544.28;5020801;28;20458;-41
2021/01/03 03:21:48;;;;;;;;;;;;;;;7.60;69.56;100548.97;5031597;28;20023;-44
2021/01/03 03:24:14;;;;;;;;;;;;;;;7.65;69.50;100570.47;5023816;28;19917;-41
2021/01/03 03:26:39;;;;;;;;;;;;;;;7.81;69.27;100568.25;5031783;28;20292;-41
2021/01/03 03:29:04;;;;;;;;;;;;;;;7.85;68.62;100567.53;5031338;28;19928;-41
2021/01/03 03:31:30;;;;;;;;;;;;;;;7.87;68.61;100565.50;5031527;28;19960;-42
2021/01/03 03:33:55;;;;;;;;;;;;;;;7.95;68.07;100573.16;5031618;28;20420;-42
2021/01/03 03:36:20;;;;;;;;;;;;;;;7.80;68.83;100564.75;5031171;28;20390;-41
2021/01/03 03:38:45;;;;;;;;;;;;;;;7.79;68.32;100570.31;5030119;28;19917;-40
2021/01/03 03:41:16;;;;;;;;;;;;;;;7.81;68.48;100576.25;5031564;28;19917;-42
2021/01/03 03:43:41;;;;;;;;;;;;;;;7.78;68.34;100574.81;5030593;28;19917;-41
2021/01/03 03:46:08;;;;;;;;;;;;;;;7.88;68.37;100566.28;5031168;28;20382;-42
2021/01/03 03:48:33;;;;;;;;;;;;;;;7.85;67.28;100564.88;5031227;28;19921;-43
2021/01/03 03:50:59;;;;;;;;;;;;;;;7.87;67.62;100570.81;5030881;28;20630;-43
2021/01/03 03:53:24;;;;;;;;;;;;;;;7.76;67.48;100563.56;5030204;28;19921;-42
2021/01/03 03:55:49;;;;;;;;;;;;;;;7.86;66.81;100563.03;5020765;28;20323;-41
2021/01/03 03:58:14;;;;;;;;;;;;;;;7.83;66.32;100556.28;5018430;28;19923;-43
2021/01/03 04:00:40;;;;;;;;;;;;;;;7.93;66.49;100555.75;5017287;28;19918;-40
2021/01/03 04:03:05;;;;;;;;;;;;;;;7.87;67.08;100544.13;5019333;28;20338;-43
2021/01/03 04:05:30;;;;;;;;;;;;;;;7.78;66.30;100550.81;5016675;28;19917;-43
2021/01/03 04:07:56;;;;;;;;;;;;;;;7.62;67.75;100546.91;5018839;28;20017;-41
2021/01/03 04:10:21;;;;;;;;;;;;;;;7.70;68.30;100551.94;5017414;28;20371;-41
2021/01/03 04:12:46;;;;;;;;;;;;;;;7.81;68.25;100545.03;5017799;28;19922;-43
2021/01/03 04:15:13;;;;;;;;;;;;;;;7.89;67.92;100538.56;5018992;28;19913;-42
2021/01/03 04:17:38;;;;;;;;;;;;;;;7.79;67.98;100535.63;5016499;28;19940;-46
2021/01/03 04:20:08;;;;;;;;;;;;;;;7.59;68.09;100531.34;5019326;28;19920;-44
2021/01/03 04:22:33;;;;;;;;;;;;;;;7.69;67.53;100536.94;5021318;28;19928;-41
2021/01/03 04:24:59;;;;;;;;;;;;;;;7.76;66.96;100523.53;5029660;28;19987;-42
2021/01/03 04:27:24;;;;;;;;;;;;;;;7.86;66.74;100531.81;5031169;28;19932;-40
2021/01/03 04:29:50;;;;;;;;;;;;;;;7.81;67.36;100521.00;5024197;28;20409;-41
2021/01/03 04:32:15;;;;;;;;;;;;;;;7.61;67.04;100517.75;5030650;28;20355;-41
2021/01/03 04:34:42;;;;;;;;;;;;;;;7.60;68.21;100508.16;5030798;28;19936;-40
2021/01/03 04:37:08;;;;;;;;;;;;;;;7.79;68.09;100515.06;5030432;28;19998;-40
2021/01/03 04:39:33;;;;;;;;;;;;;;;7.76;67.79;100510.19;5030612;28;19917;-42
2021/01/03 04:42:06;;;;;;;;;;;;;;;7.68;67.40;100511.31;5031132;28;19928;-41
2021/01/03 04:44:36;;;;;;;;;;;;;;;7.54;66.68;100507.19;5025980;28;19955;-42
2021/01/03 04:47:22;;;;;;;;;;;;;;;7.76;66.84;100500.31;5030165;28;19990;-41
2021/01/03 04:49:52;;;;;;;;;;;;;;;7.90;66.94;100490.28;5009500;28;19974;-43
2021/01/03 04:52:29;;;;;;;;;;;;;;;7.78;67.22;100492.09;5028962;28;19928;-43
2021/01/03 04:55:05;;;;;;;;;;;;;;;7.79;67.67;100493.72;5018073;28;19925;-42
2021/01/03 04:57:40;;;;;;;;;;;;;;;7.86;67.63;100501.66;5025414;28;19967;-41
2021/01/03 05:00:06;;;;;;;;;;;;;;;7.90;66.70;100500.94;5030604;28;19947;-41
2021/01/03 05:02:40;;;;;;;;;;;;;;;7.79;66.15;100501.72;5030439;28;19921;-42
2021/01/03 05:05:05;;;;;;;;;;;;;;;7.71;65.46;100502.03;5031730;28;19912;-41
2021/01/03 05:07:34;;;;;;;;;;;;;;;7.81;65.22;100510.31;5033945;28;19999;-41
2021/01/03 05:10:25;;;;;;;;;;;;;;;7.76;65.22;100507.50;5034179;28;19987;-43
2021/01/03 05:12:50;;;;;;;;;;;;;;;7.56;65.57;100505.94;5030557;28;19925;-41
2021/01/03 05:15:22;;;;;;;;;;;;;;;7.38;66.33;100520.09;5033562;28;19913;-41
2021/01/03 05:17:47;;;;;;;;;;;;;;;7.47;66.23;100515.28;5033930;28;19921;-42
2021/01/03 05:20:13;;;;;;;;;;;;;;;7.63;65.97;100521.06;5033887;28;19913;-42
2021/01/03 05:22:40;;;;;;;;;;;;;;;7.77;65.25;100517.16;5028963;28;19913;-43
2021/01/03 05:25:08;;;;;;;;;;;;;;;7.91;65.02;100513.25;5022152;28;19917;-47
2021/01/03 05:27:33;;;;;;;;;;;;;;;7.83;65.85;100510.91;5033373;28;19913;-41
2021/01/03 05:30:10;;;;;;;;;;;;;;;7.61;67.67;100517.75;5022703;28;19913;-40
2021/01/03 05:32:36;;;;;;;;;;;;;;;7.46;67.94;100520.84;5028962;28;19948;-41
2021/01/03 05:35:03;;;;;;;;;;;;;;;7.69;66.95;100528.16;5033559;28;20019;-41
2021/01/03 05:37:32;;;;;;;;;;;;;;;7.66;66.33;100532.09;5026794;28;19975;-40
2021/01/03 05:39:58;;;;;;;;;;;;;;;7.81;65.13;100534.34;5033148;28;19917;-40
2021/01/03 05:42:34;;;;;;;;;;;;;;;7.79;66.01;100536.44;5032978;28;20496;-41
2021/01/03 05:45:22;;;;;;;;;;;;;;;7.81;67.44;100542.34;5033297;28;20071;-41
2021/01/03 05:48:01;;;;;;;;;;;;;;;7.78;68.06;100548.13;5030203;28;19924;-42
2021/01/03 05:50:35;;;;;;;;;;;;;;;7.76;67.83;100543.00;5033310;28;19984;-40
2021/01/03 05:53:19;;;;;;;;;;;;;;;7.71;67.80;100545.56;5031059;28;19967;-41
2021/01/03 05:55:52;;;;;;;;;;;;;;;7.56;68.13;100550.47;5029995;28;19925;-41
2021/01/03 05:58:20;;;;;;;;;;;;;;;7.58;68.80;100551.88;5029787;28;20574;-42
2021/01/03 06:00:47;;;;;;;;;;;;;;;7.46;70.14;100559.00;5029902;28;19921;-43
2021/01/03 06:03:23;;;;;;;;;;;;;;;7.44;70.08;100555.75;5032527;28;19966;-40
2021/01/03 06:05:53;;;;;;;;;;;;;;;7.35;70.46;100549.88;5032370;28;20307;-41
2021/01/03 06:08:22;;;;;;;;;;;;;;;7.67;69.30;100552.38;5030201;28;19913;-41
2021/01/03 06:10:48;;;;;;;;;;;;;;;7.78;69.12;100553.47;5032715;28;20011;-42
2021/01/03 06:13:14;;;;;;;;;;;;;;;7.61;70.19;100560.47;5032860;28;20027;-41
2021/01/03 06:15:44;;;;;;;;;;;;;;;7.54;70.65;100558.69;5032227;28;19925;-41
2021/01/03 06:18:30;;;;;;;;;;;;;;;7.38;71.40;100561.94;5029948;28;20355;-41
2021/01/03 06:20:57;;;;;;;;;;;;;;;7.26;72.06;100564.56;5032314;28;20293;-41
2021/01/03 06:23:28;;;;;;;;;;;;;;;7.56;71.53;100561.97;5024397;28;19921;-43
2021/01/03 06:26:00;;;;;;;;;;;;;;;7.72;71.30;100567.72;5034924;28;19943;-41
2021/01/03 06:28:29;;;;;;;;;;;;;;;7.67;71.17;100557.72;5018436;28;19917;-40
2021/01/03 06:30:55;;;;;;;;;;;;;;;7.54;70.98;100561.38;5019457;28;19922;-43
2021/01/03 06:33:20;;;;;;;;;;;;;;;7.48;70.93;100566.78;5021314;28;19916;-45
2021/01/03 06:35:50;;;;;;;;;;;;;;;7.62;70.58;100575.44;5032041;28;19921;-44
2021/01/03 06:38:15;;;;;;;;;;;;;;;7.79;69.51;100573.81;5032473;28;19933;-41
2021/01/03 06:41:19;;;;;;;;;;;;;;;7.83;69.91;100582.97;5031774;28;19928;-41
2021/01/03 06:43:44;;;;;;;;;;;;;;;7.67;70.32;100578.25;5022553;28;19917;-41
2021/01/03 06:46:33;;;;;;;;;;;;;;;7.36;71.39;100577.38;5021472;28;19933;-41
2021/01/03 06:48:58;;;;;;;;;;;;;;;7.58;70.68;100578.56;5027992;28;19917;-39
2021/01/03 06:51:43;;;;;;;;;;;;;;;7.69;70.32;100578.84;5031990;28;19925;-40
2021/01/03 06:54:11;;;;;;;;;;;;;;;7.66;71.08;100580.13;5029367;28;19944;-39
2021/01/03 06:56:39;;;;;;;;;;;;;;;7.70;71.30;100580.50;5032081;28;19921;-40
2021/01/03 06:59:04;;;;;;;;;;;;;;;7.46;72.41;100580.34;5031834;28;19921;-41
2021/01/03 07:01:32;;;;;;;;;;;;;;;7.57;71.77;100587.63;5032189;28;20024;-41
2021/01/03 07:03:58;;;;;;;;;;;;;;;7.56;71.88;100591.31;5031210;28;20371;-41
2021/01/03 07:06:29;;;;;;;;;;;;;;;7.70;71.31;100585.84;5030959;28;19929;-41
2021/01/03 07:08:55;;;;;;;;;;;;;;;7.67;71.33;100584.41;5028404;28;19928;-40
2021/01/03 07:11:39;;;;;;;;;;;;;;;7.62;71.40;100596.78;5026502;28;20291;-41
2021/01/03 07:14:08;;;;;;;;;;;;;;;7.61;71.36;100592.47;5028417;28;20372;-41
2021/01/03 07:17:09;;;;;;;;;;;;;;;7.69;71.57;100594.88;5031209;28;19928;-42
2021/01/03 07:19:35;;;;;;;;;;;;;;;7.66;71.53;100600.63;4989718;28;20365;-41
2021/01/03 07:22:07;;;;;;;;;;;;;;;7.71;70.71;100603.44;5021734;28;19936;-42
2021/01/03 07:24:32;;;;;;;;;;;;;;;7.66;71.63;100613.97;5026779;28;19924;-42
2021/01/03 07:27:19;;;;;;;;;;;;;;;7.56;71.88;100607.31;5031128;28;19921;-40
2021/01/03 07:29:56;;;;;;;;;;;;;;;7.51;71.70;100609.84;5028136;28;19940;-42
2021/01/03 07:32:22;;;;;;;;;;;;;;;7.69;71.28;100617.03;5031247;28;19925;-45
2021/01/03 07:34:51;;;;;;;;;;;;;;;7.68;71.09;100622.56;5031111;28;20268;-43
2021/01/03 07:37:28;;;;;;;;;;;;;;;7.66;71.35;100625.50;5031383;28;19921;-45
2021/01/03 07:39:56;;;;;;;;;;;;;;;7.57;72.00;100630.31;5031078;28;20418;-41
2021/01/03 07:42:26;;;;;;;;;;;;;;;7.72;71.62;100631.78;5030987;28;20370;-40
2021/01/03 07:44:52;;;;;;;;;;;;;;;7.75;71.39;100639.34;5031277;28;19913;-41
2021/01/03 07:47:33;;;;;;;;;;;;;;;7.57;72.48;100640.16;5031167;28;19928;-40
2021/01/03 07:50:16;;;;;;;;;;;;;;;7.72;72.25;100639.78;5029985;28;20015;-40
2021/01/03 07:52:42;;;;;;;;;;;;;;;7.58;72.27;100650.59;5023034;28;20334;-41
2021/01/03 07:55:12;;;;;;;;;;;;;;;7.69;71.79;100656.25;5019518;28;19913;-42
2021/01/03 07:57:38;;;;;;;;;;;;;;;7.68;71.93;100662.59;5016914;28;19913;-40
2021/01/03 08:00:04;;;;;;;;;;;;;;;7.62;72.15;100660.84;5019572;28;20383;-44
2021/01/03 08:02:30;;;;;;;;;;;;;;;7.60;72.45;100662.91;5031094;28;19925;-41
2021/01/03 08:04:56;;;;;;;;;;;;;;;7.70;72.06;100660.56;5030937;28;20273;-42
2021/01/03 08:07:23;;;;;;;;;;;;;;;7.83;71.71;100654.25;5030867;28;20379;-42
2021/01/03 08:09:48;;;;;;;;;;;;;;;7.76;71.91;100660.47;5031178;28;19913;-46
2021/01/03 08:12:16;;;;;;;;;;;;;;;7.84;71.99;100662.03;5031408;28;19928;-46
2021/01/03 08:14:45;;;;;;;;;;;;;;;7.85;71.58;100674.31;5031000;28;19948;-40
2021/01/03 08:17:13;;;;;;;;;;;;;;;8.01;71.38;100666.75;5028460;28;20003;-47
2021/01/03 08:19:39;;;;;;;;;;;;;;;8.09;70.77;100671.81;5030646;28;19920;-40
2021/01/03 08:22:04;;;;;;;;;;;;;;;8.13;70.75;100683.66;5029244;28;19928;-42
2021/01/03 08:24:30;;;;;;;;;;;;;;;8.17;71.67;100686.69;5016430;28;19972;-44
2021/01/03 08:27:01;;;;;;;;;;;;;;;8.18;71.15;100696.34;5018054;28;19936;-42
2021/01/03 08:29:26;;;;;;;;;;;;;;;8.23;71.64;100696.50;5015526;28;19917;-43
2021/01/03 08:31:54;;;;;;;;;;;;;;;8.19;71.14;100698.81;5017764;28;19932;-44
2021/01/03 08:34:26;;;;;;;;;;;;;;;8.19;71.50;100700.63;5017461;28;20368;-44
2021/01/03 08:36:52;;;;;;;;;;;;;;;8.22;71.29;100709.06;5020892;28;19987;-42
2021/01/03 08:39:17;;;;;;;;;;;;;;;8.25;71.41;100711.25;5032533;28;20290;-43
2021/01/03 08:41:50;;;;;;;;;;;;;;;8.25;71.02;100711.25;5034001;28;19932;-43
2021/01/03 08:44:19;;;;;;;;;;;;;;;8.15;71.60;100713.63;5032727;28;19917;-46
2021/01/03 08:46:45;;;;;;;;;;;;;;;8.20;71.73;100712.97;5033420;28;19998;-44
2021/01/03 08:49:10;;;;;;;;;;;;;;;8.20;71.97;100713.78;5034141;28;20050;-42
2021/01/03 08:51:36;;;;;;;;;;;;;;;8.27;71.36;100713.69;5034436;28;20359;-45
2021/01/03 08:54:06;;;;;;;;;;;;;;;8.30;71.16;100708.72;5023168;28;20433;-43
2021/01/03 08:56:35;;;;;;;;;;;;;;;8.30;71.83;100716.72;5029329;28;20278;-46
2021/01/03 08:59:00;;;;;;;;;;;;;;;8.35;71.92;100717.94;5032260;28;19916;-43
2021/01/03 09:01:28;;;;;;;;;;;;;;;8.38;71.92;100720.97;5033576;28;19944;-43
2021/01/03 09:03:54;;;;;;;;;;;;;;;8.34;71.84;100709.09;5023364;28;20070;-46
2021/01/03 09:06:20;;;;;;;;;;;;;;;8.35;72.22;100718.75;5022386;28;19924;-48
2021/01/03 09:08:47;;;;;;;;;;;;;;;8.33;72.68;100724.31;5029155;28;19928;-47
2021/01/03 09:11:22;;;;;;;;;;;;;;;8.41;72.18;100727.72;5024975;28;19947;-45
2021/01/03 09:13:49;;;;;;;;;;;;;;;8.48;72.35;100731.13;5025985;28;20099;-45
2021/01/03 09:16:33;;;;;;;;;;;;;;;8.51;72.54;100730.69;5026961;28;20638;-47
2021/01/03 09:18:59;;;;;;;;;;;;;;;8.51;72.26;100736.84;5029122;28;19921;-42
2021/01/03 09:21:24;;;;;;;;;;;;;;;8.52;72.06;100735.00;5023557;28;20457;-46
2021/01/03 09:23:58;;;;;;;;;;;;;;;8.55;72.00;100731.88;5030461;28;19925;-42
2021/01/03 09:26:31;;;;;;;;;;;;;;;8.58;72.21;100728.75;5025460;28;20021;-42
2021/01/03 09:29:04;;;;;;;;;;;;;;;8.61;72.34;100747.00;5027793;28;19921;-44
2021/01/03 09:31:29;;;;;;;;;;;;;;;8.59;72.57;100738.41;5026510;28;20654;-43
2021/01/03 09:34:09;;;;;;;;;;;;;;;8.64;72.13;100735.03;5025481;28;19922;-44
2021/01/03 09:36:51;;;;;;;;;;;;;;;8.67;72.21;100740.75;5026163;28;19929;-44
2021/01/03 09:39:22;;;;;;;;;;;;;;;8.72;72.00;100736.59;5028104;28;20012;-42
2021/01/03 09:42:06;;;;;;;;;;;;;;;8.70;73.19;100740.31;5019537;28;20554;-46
2021/01/03 09:44:45;;;;;;;;;;;;;;;8.78;72.41;100741.03;5030536;28;19917;-46
2021/01/03 09:47:12;;;;;;;;;;;;;;;8.97;73.22;100739.91;5026936;28;19929;-44
2021/01/03 09:49:45;;;;;;;;;;;;;;;9.06;72.52;100746.59;5023854;28;19932;-43
2021/01/03 09:52:30;;;;;;;;;;;;;;;9.05;70.87;100744.94;5026605;28;19927;-42
2021/01/03 09:55:01;;;;;;;;;;;;;;;9.18;68.33;100745.78;5028178;28;19924;-44
2021/01/03 09:57:33;;;;;;;;;;;;;;;9.23;68.16;100753.94;5026618;28;19975;-45
2021/01/03 09:59:58;;;;;;;;;;;;;;;9.36;68.39;100747.56;5017706;28;19921;-47
2021/01/03 10:02:25;;;;;;;;;;;;;;;9.42;67.81;100752.81;5014788;28;20267;-46
2021/01/03 10:04:50;;;;;;;;;;;;;;;9.52;66.86;100749.56;5014699;28;20459;-45
2021/01/03 10:07:24;;;;;;;;;;;;;;;9.61;65.17;100753.53;5015764;28;20071;-45
2021/01/03 10:09:53;;;;;;;;;;;;;;;9.61;64.46;100763.44;5025812;28;19995;-45
2021/01/03 10:12:19;;;;;;;;;;;;;;;9.65;66.58;100762.72;5030166;28;19988;-42
2021/01/03 10:14:44;;;;;;;;;;;;;;;9.70;66.26;100754.00;5029713;28;20647;-44
2021/01/03 10:17:20;;;;;;;;;;;;;;;9.67;64.95;100757.13;5028973;28;19929;-48
2021/01/03 10:19:46;;;;;;;;;;;;;;;9.72;64.28;100757.25;5018995;28;19926;-44
2021/01/03 10:22:43;;;;;;;;;;;;;;;9.89;64.51;100757.38;5029130;28;19925;-43
2021/01/03 10:25:11;;;;;;;;;;;;;;;10.32;63.25;100758.03;5023173;28;19921;-44
2021/01/03 10:27:37;;;;;;;;;;;;;;;10.37;61.48;100761.59;5027549;28;19944;-44
2021/01/03 10:30:08;;;;;;;;;;;;;;;10.26;61.86;100757.06;5025210;28;20379;-46
2021/01/03 10:32:35;;;;;;;;;;;;;;;10.12;60.51;100766.44;5024741;28;19924;-45
2021/01/03 10:35:00;;;;;;;;;;;;;;;9.97;60.40;100757.00;5028645;28;19925;-47
2021/01/03 10:37:27;;;;;;;;;;;;;;;10.12;60.28;100763.75;5026051;28;19932;-45
2021/01/03 10:39:52;;;;;;;;;;;;;;;10.57;58.73;100763.91;5026423;28;20002;-42
2021/01/03 10:42:18;;;;;;;;;;;;;;;10.72;57.69;100755.31;5029094;28;20658;-44
2021/01/03 10:44:43;;;;;;;;;;;;;;;11.05;58.73;100750.28;5028711;28;19970;-45
2021/01/03 10:47:08;;;;;;;;;;;;;;;11.51;57.78;100762.56;5028234;28;19932;-43
2021/01/03 10:49:34;;;;;;;;;;;;;;;11.87;54.69;100751.56;5028054;28;19971;-46
2021/01/03 10:51:59;;;;;;;;;;;;;;;12.15;54.90;100745.25;5018334;28;19925;-46
2021/01/03 10:54:27;;;;;;;;;;;;;;;12.24;56.03;100749.09;5015082;28;19921;-45
2021/01/03 10:56:53;;;;;;;;;;;;;;;-146.19;100.00;63747.78;5007279;28;20842;-68
2021/01/03 10:59:19;;;;;;;;;;;;;;;-146.19;100.00;63747.78;5020547;28;19920;-70
2021/01/03 11:01:45;;;;;;;;;;;;;;;-146.19;100.00;63747.78;5023279;28;19933;-70
2021/01/03 11:04:11;;;;;;;;;;;;;;;-146.19;100.00;63747.78;5022689;28;20004;-69
2021/01/03 11:06:40;;;;;;;;;;;;;;;-146.19;100.00;63747.78;5023195;28;19964;-70
2021/01/03 11:09:07;;;;;;;;;;;;;;;-146.19;100.00;63747.78;5023578;28;19947;-67
2021/01/03 11:11:33;;;;;;;;;;;;;;;-146.19;100.00;63747.78;5023141;28;20625;-63
2021/01/03 11:13:58;;;;;;;;;;;;;;;-146.19;100.00;63747.78;5023700;28;19921;-68
2021/01/03 11:16:31;;;;;;;;;;;;;;;-146.19;100.00;63747.78;5022153;28;19928;-71
2021/01/03 11:18:56;;;;;;;;;;;;;;;-146.19;100.00;63747.78;5023146;28;20016;-67
2021/01/03 11:21:21;;;;;;;;;;;;;;;-146.19;100.00;63747.78;5022812;28;19932;-69
2021/01/03 11:23:47;;;;;;;;;;;;;;;-146.19;100.00;63747.78;5023411;28;19917;-68
2021/01/03 11:26:12;;;;;;;;;;;;;;;-146.19;100.00;63747.78;5022146;28;19928;-64
2021/01/03 11:28:37;;;;;;;;;;;;;;;-146.19;100.00;63747.78;5020907;28;19921;-68
2021/01/03 11:31:03;;;;;;;;;;;;;;;-146.19;100.00;63747.78;5016906;28;19924;-67
2021/01/03 11:33:28;;;;;;;;;;;;;;;-146.19;100.00;63747.78;5023218;28;19972;-67
2021/01/03 11:35:55;;;;;;;;;;;;;;;-146.19;100.00;63747.78;5022775;28;20079;-70
2021/01/03 11:38:21;;;;;;;;;;;;;;;-146.19;100.00;63747.78;5023253;28;20317;-66
2021/01/03 11:40:47;;;;;;;;;;;;;;;-146.19;100.00;63747.78;5023122;28;20275;-67
2021/01/03 11:43:12;;;;;;;;;;;;;;;-146.19;100.00;63747.78;5022201;28;19917;-67
2021/01/03 11:45:37;;;;;;;;;;;;;;;-146.19;100.00;63747.78;5022483;28;21397;-64
2021/01/03 11:48:03;;;;;;;;;;;;;;;-146.19;100.00;63747.78;5017089;28;19983;-68
2021/01/03 11:50:29;;;;;;;;;;;;;;;-146.19;100.00;63747.78;5043297;28;19925;-66
2021/01/03 11:52:54;;;;;;;;;;;;;;;-146.19;100.00;63747.78;5016216;28;20298;-67
2021/01/03 11:55:20;;;;;;;;;;;;;;;-146.19;100.00;63747.78;5021447;28;19968;-69
2021/01/03 11:57:46;;;;;;;;;;;;;;;-146.19;100.00;63747.78;5022520;28;20275;-65
2021/01/03 12:00:13;;;;;;;;;;;;;;;-146.19;100.00;63747.78;5022586;28;20035;-64
2021/01/03 12:02:39;;;;;;;;;;;;;;;-146.19;100.00;63747.78;5022907;28;19917;-71
2021/01/03 12:05:05;;;;;;;;;;;;;;;-146.19;100.00;63747.78;5027438;28;20434;-68
2021/01/03 12:07:31;;;;;;;;;;;;;;;-146.19;100.00;63747.78;5022805;28;20019;-71
2021/01/03 12:09:56;;;;;;;;;;;;;;;-146.19;100.00;63747.78;5027581;28;20023;-72
2021/01/03 12:12:22;;;;;;;;;;;;;;;-146.19;100.00;63747.78;5027485;28;20360;-72
2021/01/03 12:14:48;;;;;;;;;;;;;;;-146.19;100.00;63747.78;5029930;28;19917;-69
2021/01/03 12:17:16;;;;;;;;;;;;;;;-146.19;100.00;63747.78;5031405;28;20405;-66
2021/01/03 12:19:41;;;;;;;;;;;;;;;-146.19;100.00;63747.78;5032019;28;19921;-69
2021/01/03 12:22:07;;;;;;;;;;;;;;;-146.19;100.00;63747.78;5031099;28;20323;-71
2021/01/03 12:24:33;;;;;;;;;;;;;;;-146.19;100.00;63747.78;5032048;28;19917;-72
2021/01/03 12:26:58;;;;;;;;;;;;;;;-146.19;100.00;63747.78;5032299;28;19940;-68
2021/01/03 12:29:24;;;;;;;;;;;;;;;-146.19;100.00;63747.78;5030356;28;19986;-68
2021/01/03 12:31:50;;;;;;;;;;;;;;;-146.19;100.00;63747.78;5030156;28;19925;-66
2021/01/03 12:34:17;;;;;;;;;;;;;;;-146.19;100.00;63747.78;5030473;28;20031;-68
2021/01/03 12:36:42;;;;;;;;;;;;;;;-146.19;100.00;63747.78;5031560;28;20379;-67
2021/01/03 12:39:09;;;;;;;;;;;;;;;-146.19;100.00;63747.78;5030621;28;19921;-67
2021/01/03 12:41:35;;;;;;;;;;;;;;;-146.19;100.00;63747.78;5031880;28;19925;-66
2021/01/03 12:44:00;;;;;;;;;;;;;;;-146.19;100.00;63747.78;5026279;28;19937;-66
2021/01/03 12:46:27;;;;;;;;;;;;;;;-146.19;100.00;63747.78;5049252;28;19968;-66
2021/01/03 12:48:52;;;;;;;;;;;;;;;-146.19;100.00;63747.78;5023350;28;19921;-65